sensor_id;sensor_type;location;lat;lon;timestamp;P1;durP1;ratioP1;P2;durP2;ratioP2
40827;SDS011;26549;50.918;5.338;2022-07-23T00:01:17;8.82;;;4.35;;
40827;SDS011;26549;50.918;5.338;2022-07-23T00:03:42;5.95;;;4.40;;
40827;SDS011;26549;50.918;5.338;2022-07-23T00:06:08;6.05;;;4.03;;
40827;SDS011;26549;50.918;5.338;2022-07-23T00:08:34;7.10;;;4.13;;
40827;SDS011;26549;50.918;5.338;2022-07-23T00:11:00;7.55;;;4.40;;
40827;SDS011;26549;50.918;5.338;2022-07-23T00:13:26;7.15;;;3.78;;
40827;SDS011;26549;50.918;5.338;2022-07-23T00:15:53;6.78;;;3.85;;
40827;SDS011;26549;50.918;5.338;2022-07-23T00:18:18;6.47;;;3.67;;
40827;SDS011;26549;50.918;5.338;2022-07-23T00:20:44;9.57;;;4.82;;
40827;SDS011;26549;50.918;5.338;2022-07-23T00:23:10;10.02;;;4.82;;
40827;SDS011;26549;50.918;5.338;2022-07-23T00:25:36;6.20;;;4.25;;
40827;SDS011;26549;50.918;5.338;2022-07-23T00:28:02;6.90;;;4.32;;
40827;SDS011;26549;50.918;5.338;2022-07-23T00:30:28;7.13;;;4.15;;
40827;SDS011;26549;50.918;5.338;2022-07-23T00:32:56;6.78;;;4.75;;
40827;SDS011;26549;50.918;5.338;2022-07-23T00:35:27;8.70;;;5.22;;
40827;SDS011;26549;50.918;5.338;2022-07-23T00:37:54;7.32;;;4.78;;
40827;SDS011;26549;50.918;5.338;2022-07-23T00:40:21;7.10;;;4.20;;
40827;SDS011;26549;50.918;5.338;2022-07-23T00:42:46;7.95;;;4.50;;
40827;SDS011;26549;50.918;5.338;2022-07-23T00:45:12;7.32;;;4.50;;
40827;SDS011;26549;50.918;5.338;2022-07-23T00:47:38;9.30;;;4.47;;
40827;SDS011;26549;50.918;5.338;2022-07-23T00:50:07;8.40;;;4.55;;
40827;SDS011;26549;50.918;5.338;2022-07-23T00:52:34;7.72;;;4.68;;
40827;SDS011;26549;50.918;5.338;2022-07-23T00:55:00;6.07;;;3.92;;
40827;SDS011;26549;50.918;5.338;2022-07-23T00:57:26;8.15;;;4.60;;
40827;SDS011;26549;50.918;5.338;2022-07-23T00:59:52;7.25;;;4.85;;
40827;SDS011;26549;50.918;5.338;2022-07-23T01:02:18;5.03;;;4.05;;
40827;SDS011;26549;50.918;5.338;2022-07-23T01:04:44;10.25;;;4.90;;
40827;SDS011;26549;50.918;5.338;2022-07-23T01:07:10;7.60;;;4.45;;
40827;SDS011;26549;50.918;5.338;2022-07-23T01:09:36;8.13;;;4.78;;
40827;SDS011;26549;50.918;5.338;2022-07-23T01:12:03;8.60;;;5.20;;
40827;SDS011;26549;50.918;5.338;2022-07-23T01:14:29;9.65;;;4.97;;
40827;SDS011;26549;50.918;5.338;2022-07-23T01:16:54;9.38;;;5.15;;
40827;SDS011;26549;50.918;5.338;2022-07-23T01:19:20;6.50;;;4.40;;
40827;SDS011;26549;50.918;5.338;2022-07-23T01:21:47;6.63;;;4.78;;
40827;SDS011;26549;50.918;5.338;2022-07-23T01:24:14;6.95;;;5.35;;
40827;SDS011;26549;50.918;5.338;2022-07-23T01:26:44;7.28;;;4.50;;
40827;SDS011;26549;50.918;5.338;2022-07-23T01:29:10;10.77;;;4.60;;
40827;SDS011;26549;50.918;5.338;2022-07-23T01:31:36;6.68;;;4.95;;
40827;SDS011;26549;50.918;5.338;2022-07-23T01:34:02;10.15;;;4.82;;
40827;SDS011;26549;50.918;5.338;2022-07-23T01:36:29;7.57;;;5.03;;
40827;SDS011;26549;50.918;5.338;2022-07-23T01:38:54;8.15;;;4.72;;
40827;SDS011;26549;50.918;5.338;2022-07-23T01:41:20;10.20;;;5.40;;
40827;SDS011;26549;50.918;5.338;2022-07-23T01:43:46;6.72;;;4.35;;
40827;SDS011;26549;50.918;5.338;2022-07-23T01:46:12;9.30;;;4.93;;
40827;SDS011;26549;50.918;5.338;2022-07-23T01:48:38;10.60;;;5.07;;
40827;SDS011;26549;50.918;5.338;2022-07-23T01:51:03;8.60;;;5.18;;
40827;SDS011;26549;50.918;5.338;2022-07-23T01:53:29;7.22;;;4.63;;
40827;SDS011;26549;50.918;5.338;2022-07-23T01:55:58;10.25;;;4.95;;
40827;SDS011;26549;50.918;5.338;2022-07-23T01:58:24;8.05;;;5.60;;
40827;SDS011;26549;50.918;5.338;2022-07-23T02:00:50;9.80;;;5.50;;
40827;SDS011;26549;50.918;5.338;2022-07-23T02:03:16;8.30;;;4.75;;
40827;SDS011;26549;50.918;5.338;2022-07-23T02:05:42;10.05;;;4.68;;
40827;SDS011;26549;50.918;5.338;2022-07-23T02:08:07;7.15;;;4.40;;
40827;SDS011;26549;50.918;5.338;2022-07-23T02:10:33;6.95;;;4.57;;
40827;SDS011;26549;50.918;5.338;2022-07-23T02:12:59;7.13;;;4.97;;
40827;SDS011;26549;50.918;5.338;2022-07-23T02:15:24;9.45;;;5.03;;
40827;SDS011;26549;50.918;5.338;2022-07-23T02:17:50;10.38;;;5.53;;
40827;SDS011;26549;50.918;5.338;2022-07-23T02:20:16;9.70;;;5.18;;
40827;SDS011;26549;50.918;5.338;2022-07-23T02:22:42;10.40;;;4.75;;
40827;SDS011;26549;50.918;5.338;2022-07-23T02:25:08;6.22;;;4.38;;
40827;SDS011;26549;50.918;5.338;2022-07-23T02:27:34;7.82;;;4.60;;
40827;SDS011;26549;50.918;5.338;2022-07-23T02:30:01;8.35;;;5.28;;
40827;SDS011;26549;50.918;5.338;2022-07-23T02:32:27;7.18;;;4.63;;
40827;SDS011;26549;50.918;5.338;2022-07-23T02:34:53;6.68;;;4.95;;
40827;SDS011;26549;50.918;5.338;2022-07-23T02:37:19;6.85;;;5.35;;
40827;SDS011;26549;50.918;5.338;2022-07-23T02:39:44;8.55;;;4.60;;
40827;SDS011;26549;50.918;5.338;2022-07-23T02:42:10;7.75;;;5.57;;
40827;SDS011;26549;50.918;5.338;2022-07-23T02:44:36;8.05;;;4.18;;
40827;SDS011;26549;50.918;5.338;2022-07-23T02:47:02;5.53;;;4.53;;
40827;SDS011;26549;50.918;5.338;2022-07-23T02:49:28;8.30;;;4.68;;
40827;SDS011;26549;50.918;5.338;2022-07-23T02:51:53;7.68;;;5.10;;
40827;SDS011;26549;50.918;5.338;2022-07-23T02:54:19;7.57;;;4.70;;
40827;SDS011;26549;50.918;5.338;2022-07-23T02:56:45;7.45;;;4.88;;
40827;SDS011;26549;50.918;5.338;2022-07-23T02:59:11;10.88;;;5.35;;
40827;SDS011;26549;50.918;5.338;2022-07-23T03:01:36;8.32;;;5.60;;
40827;SDS011;26549;50.918;5.338;2022-07-23T03:04:02;9.13;;;4.93;;
40827;SDS011;26549;50.918;5.338;2022-07-23T03:06:30;8.95;;;5.10;;
40827;SDS011;26549;50.918;5.338;2022-07-23T03:08:58;7.35;;;5.20;;
40827;SDS011;26549;50.918;5.338;2022-07-23T03:11:24;9.98;;;6.45;;
40827;SDS011;26549;50.918;5.338;2022-07-23T03:13:50;7.55;;;4.82;;
40827;SDS011;26549;50.918;5.338;2022-07-23T03:16:15;6.70;;;4.95;;
40827;SDS011;26549;50.918;5.338;2022-07-23T03:18:41;7.30;;;5.57;;
40827;SDS011;26549;50.918;5.338;2022-07-23T03:21:07;7.38;;;5.47;;
40827;SDS011;26549;50.918;5.338;2022-07-23T03:23:33;7.40;;;5.35;;
40827;SDS011;26549;50.918;5.338;2022-07-23T03:25:59;6.30;;;4.50;;
40827;SDS011;26549;50.918;5.338;2022-07-23T03:28:25;11.13;;;5.78;;
40827;SDS011;26549;50.918;5.338;2022-07-23T03:30:52;6.40;;;5.38;;
40827;SDS011;26549;50.918;5.338;2022-07-23T03:33:18;8.73;;;5.93;;
40827;SDS011;26549;50.918;5.338;2022-07-23T03:35:46;7.63;;;4.80;;
40827;SDS011;26549;50.918;5.338;2022-07-23T03:38:12;6.97;;;4.60;;
40827;SDS011;26549;50.918;5.338;2022-07-23T03:40:38;7.40;;;5.82;;
40827;SDS011;26549;50.918;5.338;2022-07-23T03:43:06;7.80;;;4.43;;
40827;SDS011;26549;50.918;5.338;2022-07-23T03:45:32;7.35;;;4.80;;
40827;SDS011;26549;50.918;5.338;2022-07-23T03:47:58;6.50;;;4.75;;
40827;SDS011;26549;50.918;5.338;2022-07-23T03:50:24;10.65;;;5.10;;
40827;SDS011;26549;50.918;5.338;2022-07-23T03:52:53;6.80;;;4.47;;
40827;SDS011;26549;50.918;5.338;2022-07-23T03:55:19;6.57;;;4.75;;
40827;SDS011;26549;50.918;5.338;2022-07-23T03:57:45;6.47;;;4.88;;
40827;SDS011;26549;50.918;5.338;2022-07-23T04:00:11;8.02;;;4.93;;
40827;SDS011;26549;50.918;5.338;2022-07-23T04:02:38;7.93;;;4.53;;
40827;SDS011;26549;50.918;5.338;2022-07-23T04:05:04;7.53;;;4.05;;
40827;SDS011;26549;50.918;5.338;2022-07-23T04:07:31;6.88;;;4.35;;
40827;SDS011;26549;50.918;5.338;2022-07-23T04:09:56;11.98;;;6.10;;
40827;SDS011;26549;50.918;5.338;2022-07-23T04:12:22;9.38;;;5.10;;
40827;SDS011;26549;50.918;5.338;2022-07-23T04:14:49;7.97;;;4.65;;
40827;SDS011;26549;50.918;5.338;2022-07-23T04:17:14;8.70;;;4.88;;
40827;SDS011;26549;50.918;5.338;2022-07-23T04:19:40;5.90;;;4.20;;
40827;SDS011;26549;50.918;5.338;2022-07-23T04:22:08;9.23;;;5.32;;
40827;SDS011;26549;50.918;5.338;2022-07-23T04:24:34;9.52;;;5.43;;
40827;SDS011;26549;50.918;5.338;2022-07-23T04:27:00;9.43;;;5.88;;
40827;SDS011;26549;50.918;5.338;2022-07-23T04:29:26;7.68;;;5.40;;
40827;SDS011;26549;50.918;5.338;2022-07-23T04:31:51;8.43;;;5.25;;
40827;SDS011;26549;50.918;5.338;2022-07-23T04:34:17;5.53;;;4.97;;
40827;SDS011;26549;50.918;5.338;2022-07-23T04:36:45;6.55;;;4.97;;
40827;SDS011;26549;50.918;5.338;2022-07-23T04:39:11;6.88;;;5.18;;
40827;SDS011;26549;50.918;5.338;2022-07-23T04:41:37;8.57;;;5.30;;
40827;SDS011;26549;50.918;5.338;2022-07-23T04:44:04;6.80;;;5.22;;
40827;SDS011;26549;50.918;5.338;2022-07-23T04:46:30;7.43;;;5.65;;
40827;SDS011;26549;50.918;5.338;2022-07-23T04:48:56;6.88;;;5.05;;
40827;SDS011;26549;50.918;5.338;2022-07-23T04:51:25;7.85;;;5.00;;
40827;SDS011;26549;50.918;5.338;2022-07-23T04:53:51;10.48;;;5.35;;
40827;SDS011;26549;50.918;5.338;2022-07-23T04:56:16;5.53;;;5.03;;
40827;SDS011;26549;50.918;5.338;2022-07-23T04:58:42;8.52;;;5.45;;
40827;SDS011;26549;50.918;5.338;2022-07-23T05:01:08;6.05;;;4.93;;
40827;SDS011;26549;50.918;5.338;2022-07-23T05:03:33;6.40;;;4.72;;
40827;SDS011;26549;50.918;5.338;2022-07-23T05:05:59;8.70;;;4.78;;
40827;SDS011;26549;50.918;5.338;2022-07-23T05:08:25;8.27;;;5.38;;
40827;SDS011;26549;50.918;5.338;2022-07-23T05:10:51;7.30;;;5.45;;
40827;SDS011;26549;50.918;5.338;2022-07-23T05:13:17;10.02;;;5.45;;
40827;SDS011;26549;50.918;5.338;2022-07-23T05:15:44;9.68;;;5.68;;
40827;SDS011;26549;50.918;5.338;2022-07-23T05:18:10;7.90;;;5.35;;
40827;SDS011;26549;50.918;5.338;2022-07-23T05:20:36;7.63;;;5.22;;
40827;SDS011;26549;50.918;5.338;2022-07-23T05:23:02;7.88;;;5.60;;
40827;SDS011;26549;50.918;5.338;2022-07-23T05:25:28;6.65;;;5.13;;
40827;SDS011;26549;50.918;5.338;2022-07-23T05:27:54;6.95;;;5.30;;
40827;SDS011;26549;50.918;5.338;2022-07-23T05:30:19;11.50;;;5.60;;
40827;SDS011;26549;50.918;5.338;2022-07-23T05:32:45;8.93;;;5.68;;
40827;SDS011;26549;50.918;5.338;2022-07-23T05:35:11;8.13;;;5.20;;
40827;SDS011;26549;50.918;5.338;2022-07-23T05:37:37;11.50;;;6.20;;
40827;SDS011;26549;50.918;5.338;2022-07-23T05:40:07;5.57;;;4.55;;
40827;SDS011;26549;50.918;5.338;2022-07-23T05:42:35;8.65;;;5.53;;
40827;SDS011;26549;50.918;5.338;2022-07-23T05:45:01;9.23;;;4.80;;
40827;SDS011;26549;50.918;5.338;2022-07-23T05:47:28;10.20;;;5.25;;
40827;SDS011;26549;50.918;5.338;2022-07-23T05:50:03;9.93;;;5.43;;
40827;SDS011;26549;50.918;5.338;2022-07-23T05:52:29;8.43;;;4.75;;
40827;SDS011;26549;50.918;5.338;2022-07-23T05:54:55;8.35;;;5.15;;
40827;SDS011;26549;50.918;5.338;2022-07-23T05:57:21;10.82;;;4.82;;
40827;SDS011;26549;50.918;5.338;2022-07-23T05:59:47;6.97;;;5.43;;
40827;SDS011;26549;50.918;5.338;2022-07-23T06:02:12;8.70;;;5.47;;
40827;SDS011;26549;50.918;5.338;2022-07-23T06:04:41;7.75;;;5.22;;
40827;SDS011;26549;50.918;5.338;2022-07-23T06:07:07;7.78;;;5.07;;
40827;SDS011;26549;50.918;5.338;2022-07-23T06:09:32;7.38;;;5.75;;
40827;SDS011;26549;50.918;5.338;2022-07-23T06:11:58;7.65;;;5.10;;
40827;SDS011;26549;50.918;5.338;2022-07-23T06:14:24;11.52;;;5.95;;
40827;SDS011;26549;50.918;5.338;2022-07-23T06:16:50;11.25;;;5.22;;
40827;SDS011;26549;50.918;5.338;2022-07-23T06:19:15;7.47;;;5.25;;
40827;SDS011;26549;50.918;5.338;2022-07-23T06:21:41;10.60;;;5.60;;
40827;SDS011;26549;50.918;5.338;2022-07-23T06:24:07;7.07;;;5.45;;
40827;SDS011;26549;50.918;5.338;2022-07-23T06:26:33;7.95;;;5.38;;
40827;SDS011;26549;50.918;5.338;2022-07-23T06:28:59;9.07;;;7.25;;
40827;SDS011;26549;50.918;5.338;2022-07-23T06:31:24;8.50;;;5.13;;
40827;SDS011;26549;50.918;5.338;2022-07-23T06:33:50;8.75;;;5.53;;
40827;SDS011;26549;50.918;5.338;2022-07-23T06:36:16;10.40;;;5.68;;
40827;SDS011;26549;50.918;5.338;2022-07-23T06:38:41;8.27;;;5.97;;
40827;SDS011;26549;50.918;5.338;2022-07-23T06:41:07;8.70;;;5.90;;
40827;SDS011;26549;50.918;5.338;2022-07-23T06:43:33;10.85;;;6.07;;
40827;SDS011;26549;50.918;5.338;2022-07-23T06:45:58;8.50;;;6.35;;
40827;SDS011;26549;50.918;5.338;2022-07-23T06:48:24;9.45;;;6.82;;
40827;SDS011;26549;50.918;5.338;2022-07-23T06:50:50;9.43;;;6.15;;
40827;SDS011;26549;50.918;5.338;2022-07-23T06:53:17;12.57;;;7.47;;
40827;SDS011;26549;50.918;5.338;2022-07-23T06:55:43;8.60;;;6.05;;
40827;SDS011;26549;50.918;5.338;2022-07-23T06:58:09;9.27;;;6.03;;
40827;SDS011;26549;50.918;5.338;2022-07-23T07:00:35;8.25;;;6.13;;
40827;SDS011;26549;50.918;5.338;2022-07-23T07:03:01;6.22;;;5.30;;
40827;SDS011;26549;50.918;5.338;2022-07-23T07:05:27;9.93;;;6.00;;
40827;SDS011;26549;50.918;5.338;2022-07-23T07:07:56;11.95;;;6.30;;
40827;SDS011;26549;50.918;5.338;2022-07-23T07:10:21;9.15;;;6.65;;
40827;SDS011;26549;50.918;5.338;2022-07-23T07:12:48;10.73;;;5.85;;
40827;SDS011;26549;50.918;5.338;2022-07-23T07:15:13;9.00;;;7.22;;
40827;SDS011;26549;50.918;5.338;2022-07-23T07:17:39;7.88;;;6.30;;
40827;SDS011;26549;50.918;5.338;2022-07-23T07:20:05;9.68;;;6.93;;
40827;SDS011;26549;50.918;5.338;2022-07-23T07:22:31;8.02;;;7.05;;
40827;SDS011;26549;50.918;5.338;2022-07-23T07:24:57;11.88;;;6.47;;
40827;SDS011;26549;50.918;5.338;2022-07-23T07:27:23;9.32;;;6.10;;
40827;SDS011;26549;50.918;5.338;2022-07-23T07:29:48;13.13;;;6.75;;
40827;SDS011;26549;50.918;5.338;2022-07-23T07:32:14;7.95;;;5.65;;
40827;SDS011;26549;50.918;5.338;2022-07-23T07:34:40;11.13;;;6.07;;
40827;SDS011;26549;50.918;5.338;2022-07-23T07:37:05;8.82;;;6.88;;
40827;SDS011;26549;50.918;5.338;2022-07-23T07:39:31;7.97;;;6.25;;
40827;SDS011;26549;50.918;5.338;2022-07-23T07:41:57;8.60;;;6.63;;
40827;SDS011;26549;50.918;5.338;2022-07-23T07:44:22;7.50;;;5.35;;
40827;SDS011;26549;50.918;5.338;2022-07-23T07:46:48;11.52;;;6.38;;
40827;SDS011;26549;50.918;5.338;2022-07-23T07:49:14;11.65;;;6.32;;
40827;SDS011;26549;50.918;5.338;2022-07-23T07:51:42;9.38;;;5.57;;
40827;SDS011;26549;50.918;5.338;2022-07-23T07:54:07;8.35;;;6.10;;
40827;SDS011;26549;50.918;5.338;2022-07-23T07:56:33;7.63;;;5.35;;
40827;SDS011;26549;50.918;5.338;2022-07-23T07:58:59;8.10;;;5.38;;
40827;SDS011;26549;50.918;5.338;2022-07-23T08:01:26;7.68;;;5.68;;
40827;SDS011;26549;50.918;5.338;2022-07-23T08:03:51;7.88;;;5.68;;
40827;SDS011;26549;50.918;5.338;2022-07-23T08:06:17;8.38;;;5.30;;
40827;SDS011;26549;50.918;5.338;2022-07-23T08:08:44;9.85;;;5.60;;
40827;SDS011;26549;50.918;5.338;2022-07-23T08:11:09;8.52;;;5.38;;
40827;SDS011;26549;50.918;5.338;2022-07-23T08:13:35;11.45;;;6.30;;
40827;SDS011;26549;50.918;5.338;2022-07-23T08:16:01;9.10;;;5.45;;
40827;SDS011;26549;50.918;5.338;2022-07-23T08:18:28;8.10;;;5.25;;
40827;SDS011;26549;50.918;5.338;2022-07-23T08:20:53;9.35;;;6.28;;
40827;SDS011;26549;50.918;5.338;2022-07-23T08:23:19;6.38;;;4.57;;
40827;SDS011;26549;50.918;5.338;2022-07-23T08:25:46;6.40;;;3.83;;
40827;SDS011;26549;50.918;5.338;2022-07-23T08:28:13;6.53;;;4.45;;
40827;SDS011;26549;50.918;5.338;2022-07-23T08:30:40;8.55;;;5.07;;
40827;SDS011;26549;50.918;5.338;2022-07-23T08:33:08;5.30;;;4.18;;
40827;SDS011;26549;50.918;5.338;2022-07-23T08:35:40;6.45;;;4.72;;
40827;SDS011;26549;50.918;5.338;2022-07-23T08:38:13;6.97;;;4.18;;
40827;SDS011;26549;50.918;5.338;2022-07-23T08:40:41;9.90;;;5.28;;
40827;SDS011;26549;50.918;5.338;2022-07-23T08:43:10;7.47;;;4.60;;
40827;SDS011;26549;50.918;5.338;2022-07-23T08:45:40;8.25;;;5.28;;
40827;SDS011;26549;50.918;5.338;2022-07-23T08:48:13;10.35;;;5.43;;
40827;SDS011;26549;50.918;5.338;2022-07-23T08:50:45;9.13;;;5.10;;
40827;SDS011;26549;50.918;5.338;2022-07-23T08:53:12;14.80;;;5.15;;
40827;SDS011;26549;50.918;5.338;2022-07-23T08:55:39;16.45;;;5.43;;
40827;SDS011;26549;50.918;5.338;2022-07-23T08:58:05;9.20;;;4.78;;
40827;SDS011;26549;50.918;5.338;2022-07-23T09:00:31;11.25;;;5.45;;
40827;SDS011;26549;50.918;5.338;2022-07-23T09:02:58;8.73;;;4.65;;
40827;SDS011;26549;50.918;5.338;2022-07-23T09:05:24;6.30;;;4.05;;
40827;SDS011;26549;50.918;5.338;2022-07-23T09:13:24;8.05;;;4.38;;
40827;SDS011;26549;50.918;5.338;2022-07-23T09:15:50;5.70;;;4.28;;
40827;SDS011;26549;50.918;5.338;2022-07-23T09:18:17;7.47;;;4.88;;
40827;SDS011;26549;50.918;5.338;2022-07-23T09:20:44;9.65;;;4.57;;
40827;SDS011;26549;50.918;5.338;2022-07-23T09:23:10;8.00;;;5.43;;
40827;SDS011;26549;50.918;5.338;2022-07-23T09:25:36;8.60;;;4.70;;
40827;SDS011;26549;50.918;5.338;2022-07-23T09:28:01;8.10;;;5.13;;
40827;SDS011;26549;50.918;5.338;2022-07-23T09:30:28;8.40;;;4.50;;
40827;SDS011;26549;50.918;5.338;2022-07-23T09:33:06;6.00;;;4.60;;
40827;SDS011;26549;50.918;5.338;2022-07-23T09:35:49;4.22;;;3.83;;
40827;SDS011;26549;50.918;5.338;2022-07-23T09:38:17;10.93;;;4.55;;
40827;SDS011;26549;50.918;5.338;2022-07-23T09:40:44;6.05;;;4.32;;
40827;SDS011;26549;50.918;5.338;2022-07-23T09:43:11;12.10;;;4.07;;
40827;SDS011;26549;50.918;5.338;2022-07-23T09:45:52;6.45;;;4.45;;
40827;SDS011;26549;50.918;5.338;2022-07-23T09:48:17;7.32;;;4.30;;
40827;SDS011;26549;50.918;5.338;2022-07-23T09:50:44;10.25;;;4.53;;
40827;SDS011;26549;50.918;5.338;2022-07-23T09:53:14;8.02;;;4.45;;
40827;SDS011;26549;50.918;5.338;2022-07-23T09:55:49;6.60;;;3.55;;
40827;SDS011;26549;50.918;5.338;2022-07-23T09:58:18;6.45;;;3.97;;
40827;SDS011;26549;50.918;5.338;2022-07-23T10:00:46;7.82;;;4.50;;
40827;SDS011;26549;50.918;5.338;2022-07-23T10:03:14;6.88;;;3.30;;
40827;SDS011;26549;50.918;5.338;2022-07-23T10:05:42;7.45;;;3.25;;
40827;SDS011;26549;50.918;5.338;2022-07-23T10:08:10;6.75;;;3.47;;
40827;SDS011;26549;50.918;5.338;2022-07-23T10:10:38;6.57;;;2.95;;
40827;SDS011;26549;50.918;5.338;2022-07-23T10:13:04;5.70;;;2.92;;
40827;SDS011;26549;50.918;5.338;2022-07-23T10:16:06;5.38;;;2.30;;
40827;SDS011;26549;50.918;5.338;2022-07-23T10:18:33;7.60;;;3.45;;
40827;SDS011;26549;50.918;5.338;2022-07-23T10:20:59;6.05;;;2.83;;
40827;SDS011;26549;50.918;5.338;2022-07-23T10:23:28;4.45;;;3.13;;
40827;SDS011;26549;50.918;5.338;2022-07-23T10:26:05;4.93;;;3.25;;
40827;SDS011;26549;50.918;5.338;2022-07-23T10:34:21;3.38;;;2.38;;
40827;SDS011;26549;50.918;5.338;2022-07-23T10:37:13;4.07;;;2.67;;
40827;SDS011;26549;50.918;5.338;2022-07-23T10:39:56;6.45;;;3.00;;
40827;SDS011;26549;50.918;5.338;2022-07-23T10:42:38;4.68;;;3.15;;
40827;SDS011;26549;50.918;5.338;2022-07-23T10:48:18;5.03;;;2.97;;
40827;SDS011;26549;50.918;5.338;2022-07-23T10:59:30;3.80;;;2.17;;
40827;SDS011;26549;50.918;5.338;2022-07-23T11:02:19;3.08;;;2.38;;
40827;SDS011;26549;50.918;5.338;2022-07-23T11:04:52;6.95;;;2.60;;
40827;SDS011;26549;50.918;5.338;2022-07-23T11:07:18;3.90;;;2.42;;
40827;SDS011;26549;50.918;5.338;2022-07-23T11:09:44;4.90;;;2.05;;
40827;SDS011;26549;50.918;5.338;2022-07-23T11:20:16;13.93;;;2.22;;
40827;SDS011;26549;50.918;5.338;2022-07-23T11:22:51;2.38;;;1.95;;
40827;SDS011;26549;50.918;5.338;2022-07-23T11:27:53;2.13;;;1.58;;
40827;SDS011;26549;50.918;5.338;2022-07-23T11:32:51;3.75;;;1.73;;
40827;SDS011;26549;50.918;5.338;2022-07-23T11:37:47;1.95;;;1.85;;
40827;SDS011;26549;50.918;5.338;2022-07-23T11:40:17;5.10;;;2.38;;
40827;SDS011;26549;50.918;5.338;2022-07-23T11:42:56;4.03;;;1.75;;
40827;SDS011;26549;50.918;5.338;2022-07-23T11:45:34;2.03;;;1.30;;
40827;SDS011;26549;50.918;5.338;2022-07-23T11:48:03;4.50;;;2.38;;
40827;SDS011;26549;50.918;5.338;2022-07-23T11:50:32;4.70;;;2.38;;
40827;SDS011;26549;50.918;5.338;2022-07-23T11:52:58;3.10;;;1.92;;
40827;SDS011;26549;50.918;5.338;2022-07-23T11:55:23;3.63;;;1.92;;
40827;SDS011;26549;50.918;5.338;2022-07-23T11:57:50;2.75;;;1.30;;
40827;SDS011;26549;50.918;5.338;2022-07-23T12:00:22;3.70;;;1.20;;
40827;SDS011;26549;50.918;5.338;2022-07-23T12:02:53;1.70;;;1.15;;
40827;SDS011;26549;50.918;5.338;2022-07-23T12:05:27;2.38;;;0.80;;
40827;SDS011;26549;50.918;5.338;2022-07-23T12:07:55;1.58;;;1.00;;
40827;SDS011;26549;50.918;5.338;2022-07-23T12:10:23;2.67;;;0.73;;
40827;SDS011;26549;50.918;5.338;2022-07-23T12:12:56;3.17;;;1.10;;
40827;SDS011;26549;50.918;5.338;2022-07-23T12:18:02;2.33;;;0.73;;
40827;SDS011;26549;50.918;5.338;2022-07-23T12:20:33;1.70;;;0.98;;
40827;SDS011;26549;50.918;5.338;2022-07-23T12:23:02;1.92;;;0.88;;
40827;SDS011;26549;50.918;5.338;2022-07-23T12:25:30;1.27;;;1.00;;
40827;SDS011;26549;50.918;5.338;2022-07-23T12:27:59;1.42;;;1.10;;
40827;SDS011;26549;50.918;5.338;2022-07-23T12:30:31;1.73;;;0.95;;
40827;SDS011;26549;50.918;5.338;2022-07-23T12:33:08;1.30;;;1.20;;
40827;SDS011;26549;50.918;5.338;2022-07-23T12:35:42;1.52;;;0.90;;
40827;SDS011;26549;50.918;5.338;2022-07-23T12:38:14;1.10;;;1.00;;
40827;SDS011;26549;50.918;5.338;2022-07-23T12:43:22;1.98;;;1.00;;
40827;SDS011;26549;50.918;5.338;2022-07-23T12:45:52;1.75;;;0.90;;
40827;SDS011;26549;50.918;5.338;2022-07-23T12:48:31;2.17;;;1.20;;
40827;SDS011;26549;50.918;5.338;2022-07-23T12:53:30;2.67;;;1.10;;
40827;SDS011;26549;50.918;5.338;2022-07-23T12:55:59;1.40;;;1.00;;
40827;SDS011;26549;50.918;5.338;2022-07-23T12:58:24;1.05;;;0.95;;
40827;SDS011;26549;50.918;5.338;2022-07-23T13:00:51;1.15;;;1.00;;
40827;SDS011;26549;50.918;5.338;2022-07-23T13:06:19;2.03;;;1.00;;
40827;SDS011;26549;50.918;5.338;2022-07-23T13:08:45;3.33;;;0.80;;
40827;SDS011;26549;50.918;5.338;2022-07-23T13:11:11;1.33;;;0.90;;
40827;SDS011;26549;50.918;5.338;2022-07-23T13:13:36;1.70;;;1.25;;
40827;SDS011;26549;50.918;5.338;2022-07-23T13:16:02;2.08;;;1.30;;
40827;SDS011;26549;50.918;5.338;2022-07-23T13:18:28;3.92;;;1.38;;
40827;SDS011;26549;50.918;5.338;2022-07-23T13:20:54;3.35;;;1.40;;
40827;SDS011;26549;50.918;5.338;2022-07-23T13:23:21;7.82;;;1.88;;
40827;SDS011;26549;50.918;5.338;2022-07-23T13:25:47;1.30;;;0.90;;
40827;SDS011;26549;50.918;5.338;2022-07-23T13:28:14;1.45;;;1.20;;
40827;SDS011;26549;50.918;5.338;2022-07-23T13:30:41;1.27;;;1.08;;
40827;SDS011;26549;50.918;5.338;2022-07-23T13:33:07;1.35;;;1.13;;
40827;SDS011;26549;50.918;5.338;2022-07-23T13:35:34;2.15;;;1.45;;
40827;SDS011;26549;50.918;5.338;2022-07-23T13:38:01;4.03;;;1.20;;
40827;SDS011;26549;50.918;5.338;2022-07-23T13:40:27;1.42;;;1.15;;
40827;SDS011;26549;50.918;5.338;2022-07-23T13:42:53;3.35;;;1.20;;
40827;SDS011;26549;50.918;5.338;2022-07-23T13:45:19;1.58;;;1.10;;
40827;SDS011;26549;50.918;5.338;2022-07-23T13:47:45;2.15;;;1.15;;
40827;SDS011;26549;50.918;5.338;2022-07-23T13:50:10;4.22;;;1.73;;
40827;SDS011;26549;50.918;5.338;2022-07-23T13:52:36;1.63;;;1.05;;
40827;SDS011;26549;50.918;5.338;2022-07-23T13:55:05;3.28;;;1.63;;
40827;SDS011;26549;50.918;5.338;2022-07-23T13:57:33;2.05;;;1.45;;
40827;SDS011;26549;50.918;5.338;2022-07-23T13:59:58;1.30;;;1.20;;
40827;SDS011;26549;50.918;5.338;2022-07-23T14:02:24;1.98;;;1.38;;
40827;SDS011;26549;50.918;5.338;2022-07-23T14:04:50;1.08;;;0.95;;
40827;SDS011;26549;50.918;5.338;2022-07-23T14:07:17;5.03;;;2.00;;
40827;SDS011;26549;50.918;5.338;2022-07-23T14:09:43;3.92;;;2.10;;
40827;SDS011;26549;50.918;5.338;2022-07-23T14:12:12;3.47;;;1.80;;
40827;SDS011;26549;50.918;5.338;2022-07-23T14:14:37;2.92;;;1.40;;
40827;SDS011;26549;50.918;5.338;2022-07-23T14:17:03;4.47;;;1.67;;
40827;SDS011;26549;50.918;5.338;2022-07-23T14:19:29;2.22;;;1.33;;
40827;SDS011;26549;50.918;5.338;2022-07-23T14:21:54;2.28;;;1.50;;
40827;SDS011;26549;50.918;5.338;2022-07-23T14:24:20;1.77;;;1.40;;
40827;SDS011;26549;50.918;5.338;2022-07-23T14:26:46;1.10;;;1.10;;
40827;SDS011;26549;50.918;5.338;2022-07-23T14:29:11;2.42;;;1.20;;
40827;SDS011;26549;50.918;5.338;2022-07-23T14:31:37;2.33;;;1.30;;
40827;SDS011;26549;50.918;5.338;2022-07-23T14:34:03;2.92;;;1.75;;
40827;SDS011;26549;50.918;5.338;2022-07-23T14:36:29;2.05;;;1.25;;
40827;SDS011;26549;50.918;5.338;2022-07-23T14:38:55;1.60;;;1.38;;
40827;SDS011;26549;50.918;5.338;2022-07-23T14:41:20;1.98;;;1.58;;
40827;SDS011;26549;50.918;5.338;2022-07-23T14:43:46;2.75;;;1.50;;
40827;SDS011;26549;50.918;5.338;2022-07-23T14:46:12;1.98;;;1.70;;
40827;SDS011;26549;50.918;5.338;2022-07-23T14:48:38;2.58;;;1.38;;
40827;SDS011;26549;50.918;5.338;2022-07-23T14:51:04;1.90;;;1.67;;
40827;SDS011;26549;50.918;5.338;2022-07-23T14:53:30;3.50;;;1.73;;
40827;SDS011;26549;50.918;5.338;2022-07-23T14:55:55;2.08;;;1.25;;
40827;SDS011;26549;50.918;5.338;2022-07-23T14:58:24;3.40;;;1.40;;
40827;SDS011;26549;50.918;5.338;2022-07-23T15:00:50;1.75;;;1.20;;
40827;SDS011;26549;50.918;5.338;2022-07-23T15:03:16;2.20;;;1.42;;
40827;SDS011;26549;50.918;5.338;2022-07-23T15:05:42;2.90;;;1.38;;
40827;SDS011;26549;50.918;5.338;2022-07-23T15:08:08;2.28;;;1.33;;
40827;SDS011;26549;50.918;5.338;2022-07-23T15:10:34;2.15;;;1.50;;
40827;SDS011;26549;50.918;5.338;2022-07-23T15:13:00;2.65;;;1.40;;
40827;SDS011;26549;50.918;5.338;2022-07-23T15:15:26;4.45;;;1.85;;
40827;SDS011;26549;50.918;5.338;2022-07-23T15:17:51;2.53;;;1.60;;
40827;SDS011;26549;50.918;5.338;2022-07-23T15:20:17;2.92;;;1.30;;
40827;SDS011;26549;50.918;5.338;2022-07-23T15:22:43;1.65;;;1.27;;
40827;SDS011;26549;50.918;5.338;2022-07-23T15:25:10;2.25;;;1.30;;
40827;SDS011;26549;50.918;5.338;2022-07-23T15:27:36;3.90;;;1.35;;
40827;SDS011;26549;50.918;5.338;2022-07-23T15:30:02;2.47;;;1.38;;
40827;SDS011;26549;50.918;5.338;2022-07-23T15:32:28;1.55;;;1.45;;
40827;SDS011;26549;50.918;5.338;2022-07-23T15:34:54;2.97;;;1.35;;